createdAt,value
2023-02-02T00:02:30.698Z,98453.78
2023-02-02T00:05:15.847Z,98471.22
2023-02-02T00:08:01.117Z,98468.84
2023-02-02T00:10:46.728Z,98471.97
2023-02-02T00:13:32.643Z,98473.97
2023-02-02T00:16:27.135Z,98469.63
2023-02-02T00:19:26.305Z,98484.75
2023-02-02T00:22:11.653Z,98472.09
2023-02-02T00:24:56.980Z,98478.41
2023-02-02T00:27:42.108Z,98466.53
2023-02-02T00:30:27.356Z,98472.09
2023-02-02T00:33:12.467Z,98472.53
2023-02-02T00:35:58.238Z,98471.28
2023-02-02T00:38:43.889Z,98469.75
2023-02-02T00:41:28.905Z,98467.41
2023-02-02T00:44:32.738Z,98460.66
2023-02-02T00:47:18.372Z,98461.84
2023-02-02T00:50:04.291Z,98458.31
2023-02-02T00:52:50.512Z,98457.53
2023-02-02T00:55:35.787Z,98465.84
2023-02-02T00:58:21.000Z,98459.53
2023-02-02T01:01:06.346Z,98451.97
2023-02-02T01:03:52.380Z,98465.53
2023-02-02T01:06:38.099Z,98465.53
2023-02-02T01:09:23.451Z,98468.28
2023-02-02T01:12:08.829Z,98468.28
2023-02-02T01:14:54.005Z,98459.19
2023-02-02T01:17:40.368Z,98451.63
2023-02-02T01:20:25.903Z,98466.72
2023-02-02T01:23:11.318Z,98468.28
2023-02-02T01:25:58.553Z,98465.94
2023-02-02T01:28:44.148Z,98473.84
2023-02-02T01:31:29.705Z,98460.41
2023-02-02T01:34:14.930Z,98460.81
2023-02-02T01:37:00.019Z,98459.63
2023-02-02T01:39:45.247Z,98456.06
2023-02-02T01:42:30.499Z,98456.84
2023-02-02T01:45:26.996Z,98449.41
2023-02-02T01:48:13.623Z,98455.28
2023-02-02T01:51:03.116Z,98462.06
2023-02-02T01:53:51.011Z,98458.06
2023-02-02T01:56:43.442Z,98462.06
2023-02-02T01:59:30.729Z,98462.06
2023-02-02T02:02:16.832Z,98456.16
2023-02-02T02:05:03.697Z,98452.50
2023-02-02T02:07:51.971Z,98441.09
2023-02-02T02:10:37.189Z,98450.94
2023-02-02T02:13:45.034Z,98450.94
2023-02-02T02:17:08.890Z,98456.94
2023-02-02T02:20:50.909Z,98456.94
2023-02-02T02:24:29.952Z,98464.50
2023-02-02T02:27:45.603Z,98466.16
2023-02-02T02:31:02.818Z,98466.94
2023-02-02T02:34:03.350Z,98479.59
2023-02-02T02:36:54.901Z,98459.38
2023-02-02T02:39:55.740Z,98473.25
2023-02-02T02:43:28.866Z,98470.94
2023-02-02T02:46:14.259Z,98470.94
2023-02-02T02:49:01.434Z,98468.16
2023-02-02T02:51:54.274Z,98466.16
2023-02-02T02:54:47.114Z,98475.25
2023-02-02T02:57:41.875Z,98471.72
2023-02-02T03:00:48.745Z,98476.50
2023-02-02T03:03:55.489Z,98463.38
2023-02-02T03:07:00.204Z,98463.81
2023-02-02T03:09:48.371Z,98467.38
2023-02-02T03:12:34.327Z,98465.38
2023-02-02T03:15:20.006Z,98455.81
2023-02-02T03:18:05.268Z,98467.38
2023-02-02T03:20:50.606Z,98473.72
2023-02-02T03:23:36.010Z,98479.28
2023-02-02T03:26:21.727Z,98469.38
2023-02-02T03:29:11.694Z,98483.25
2023-02-02T03:31:57.063Z,98492.34
2023-02-02T03:34:42.291Z,98483.25
2023-02-02T03:37:28.438Z,98491.56
2023-02-02T03:40:14.394Z,98491.56
2023-02-02T03:42:59.660Z,98490.03
2023-02-02T03:45:45.030Z,98483.25
2023-02-02T03:48:31.279Z,98487.59
2023-02-02T03:51:17.139Z,98494.69
2023-02-02T03:54:02.556Z,98504.25
2023-02-02T03:56:47.767Z,98509.81
2023-02-02T03:59:33.231Z,98504.25
2023-02-02T04:02:18.527Z,98519.34
2023-02-02T04:05:04.083Z,98513.78
2023-02-02T04:07:49.598Z,98513.78
2023-02-02T04:10:34.836Z,98520.13
2023-02-02T04:13:20.506Z,98509.00
2023-02-02T04:16:06.309Z,98515.38
2023-02-02T04:18:51.943Z,98509.81
2023-02-02T04:21:37.207Z,98518.13
2023-02-02T04:24:22.458Z,98526.47
2023-02-02T04:27:07.675Z,98541.13
2023-02-02T04:29:53.139Z,98549.47
2023-02-02T04:32:38.783Z,98533.56
2023-02-02T04:35:24.706Z,98528.91
2023-02-02T04:38:10.182Z,98530.44
2023-02-02T04:40:56.441Z,98542.78
2023-02-02T04:43:41.789Z,98536.78
2023-02-02T04:46:28.596Z,98557.00
2023-02-02T04:49:14.152Z,98557.00
2023-02-02T04:51:59.335Z,98543.13
2023-02-02T04:54:44.951Z,98555.00
2023-02-02T04:57:30.359Z,98559.00
2023-02-02T05:00:16.568Z,98555.78
2023-02-02T05:03:02.281Z,98570.91
2023-02-02T05:05:47.583Z,98566.13
2023-02-02T05:08:33.359Z,98572.44
2023-02-02T05:11:20.898Z,98577.13
2023-02-02T05:14:06.360Z,98561.59
2023-02-02T05:16:52.761Z,98584.50
2023-02-02T05:19:38.088Z,98576.81
2023-02-02T05:22:23.509Z,98583.06
2023-02-02T05:25:10.095Z,98573.41
2023-02-02T05:27:55.252Z,98581.22
2023-02-02T05:30:41.265Z,98589.03
2023-02-02T05:33:26.811Z,98589.72
2023-02-02T05:36:12.666Z,98585.28
2023-02-02T05:38:58.497Z,98593.16
2023-02-02T05:41:44.026Z,98599.72
2023-02-02T05:44:29.835Z,98591.41
2023-02-02T05:47:15.309Z,98590.09
2023-02-02T05:50:02.563Z,98591.22
2023-02-02T05:52:48.970Z,98612.94
2023-02-02T05:55:34.424Z,98607.16
2023-02-02T05:58:19.809Z,98605.41
2023-02-02T06:01:05.594Z,98616.06
2023-02-02T06:03:51.379Z,98617.97
2023-02-02T06:06:38.290Z,98628.75
2023-02-02T06:09:24.007Z,98630.75
2023-02-02T06:12:09.875Z,98629.19
2023-02-02T06:14:55.290Z,98632.84
2023-02-02T06:17:40.481Z,98641.63
2023-02-02T06:20:25.741Z,98640.84
2023-02-02T06:23:11.032Z,98643.28
2023-02-02T06:25:56.268Z,98650.06
2023-02-02T06:28:42.863Z,98656.84
2023-02-02T06:31:28.353Z,98668.41
2023-02-02T06:34:14.629Z,98668.84
2023-02-02T06:36:59.804Z,98657.41
2023-02-02T06:39:45.111Z,98672.50
2023-02-02T06:42:30.748Z,98670.25
2023-02-02T06:45:16.464Z,98668.34
2023-02-02T06:48:04.149Z,98670.78
2023-02-02T06:50:49.311Z,98678.31
2023-02-02T06:53:35.299Z,98674.41
2023-02-02T06:56:20.472Z,98682.75
2023-02-02T06:59:06.090Z,98688.75
2023-02-02T07:01:51.675Z,98686.06
2023-02-02T07:04:36.857Z,98699.97
2023-02-02T07:07:22.117Z,98687.31
2023-02-02T07:10:07.763Z,98699.63
2023-02-02T07:12:54.405Z,98718.72
2023-02-02T07:15:40.757Z,98704.47
2023-02-02T07:18:26.356Z,98722.38
2023-02-02T07:21:23.416Z,98722.81
2023-02-02T07:24:08.953Z,98716.47
2023-02-02T07:26:54.477Z,98723.22
2023-02-02T07:29:39.710Z,98718.47
2023-02-02T07:32:24.914Z,98722.47
2023-02-02T07:35:10.171Z,98725.22
2023-02-02T07:37:56.025Z,98733.56
2023-02-02T07:40:41.523Z,98732.78
2023-02-02T07:43:27.112Z,98735.56
2023-02-02T07:46:14.343Z,98738.34
2023-02-02T07:48:59.732Z,98738.34
2023-02-02T07:51:47.742Z,98738.78
2023-02-02T07:54:33.278Z,98749.88
2023-02-02T07:57:18.696Z,98749.13
2023-02-02T08:00:04.341Z,98751.13
2023-02-02T08:02:57.346Z,98750.34
2023-02-02T08:05:42.435Z,98756.69
2023-02-02T08:08:28.555Z,98759.44
2023-02-02T08:11:16.793Z,98757.44
2023-02-02T08:14:03.948Z,98752.31
2023-02-02T08:16:49.157Z,98762.22
2023-02-02T08:19:34.330Z,98767.78
2023-02-02T08:22:20.470Z,98766.22
2023-02-02T08:25:06.154Z,98772.56
2023-02-02T08:27:55.545Z,98778.13
2023-02-02T08:30:41.132Z,98784.88
2023-02-02T08:33:26.238Z,98789.22
2023-02-02T08:36:13.743Z,98788.44
2023-02-02T08:39:05.687Z,98794.00
2023-02-02T08:41:51.215Z,98795.56
2023-02-02T08:45:57.013Z,98792.44
2023-02-02T08:47:41.855Z,98807.09
2023-02-02T08:50:27.243Z,98791.66
2023-02-02T08:53:12.598Z,98807.09
2023-02-02T08:56:05.539Z,98800.41
2023-02-02T08:58:53.753Z,98816.66
2023-02-02T09:01:39.351Z,98819.44
2023-02-02T09:04:24.666Z,98815.84
2023-02-02T09:07:09.928Z,98820.22
2023-02-02T09:09:58.130Z,98821.09
2023-02-02T09:12:43.119Z,98827.41
2023-02-02T09:15:28.528Z,98820.63
2023-02-02T09:18:13.888Z,98828.97
2023-02-02T09:21:04.691Z,98834.53
2023-02-02T09:23:51.493Z,98834.53
2023-02-02T09:26:37.431Z,98838.53
2023-02-02T09:29:22.613Z,98832.97
2023-02-02T09:32:07.877Z,98830.56
2023-02-02T09:34:53.132Z,98845.63
2023-02-02T09:37:38.447Z,98838.88
2023-02-02T09:40:27.860Z,98850.00
2023-02-02T09:43:31.313Z,98851.19
2023-02-02T09:46:35.466Z,98855.19
2023-02-02T09:49:30.067Z,98863.09
2023-02-02T09:52:44.065Z,98869.09
2023-02-02T09:55:39.606Z,98870.28
2023-02-02T09:58:34.172Z,98875.84
2023-02-02T10:01:39.653Z,98876.66
2023-02-02T10:04:39.487Z,98875.84
2023-02-02T10:07:40.800Z,98882.97
2023-02-02T10:10:29.377Z,98879.84
2023-02-02T10:13:39.188Z,98885.41
2023-02-02T10:16:25.599Z,98888.19
2023-02-02T10:19:13.865Z,98886.19
2023-02-02T10:22:11.141Z,98898.06
2023-02-02T10:24:58.409Z,98892.50
2023-02-02T10:27:54.599Z,98888.53
2023-02-02T10:30:50.917Z,98892.50
2023-02-02T10:33:39.708Z,98889.72
2023-02-02T10:36:37.660Z,98882.97
2023-02-02T10:39:44.150Z,98890.88
2023-02-02T10:42:32.857Z,98894.88
2023-02-02T10:45:20.572Z,98895.63
2023-02-02T10:48:17.246Z,98890.53
2023-02-02T10:51:11.093Z,98883.75
2023-02-02T10:53:59.972Z,98903.19
2023-02-02T10:56:53.894Z,98910.75
2023-02-02T10:59:56.043Z,98905.56
2023-02-02T11:02:41.451Z,98914.31
2023-02-02T11:05:47.244Z,98907.53
2023-02-02T11:08:39.983Z,98911.88
2023-02-02T11:11:38.353Z,98914.66
2023-02-02T11:14:52.506Z,98914.66
2023-02-02T11:17:38.335Z,98913.09
2023-02-02T11:20:32.085Z,98915.09
2023-02-02T11:23:20.932Z,98911.53
2023-02-02T11:26:07.384Z,98909.53
2023-02-02T11:28:55.266Z,98913.88
2023-02-02T11:31:40.604Z,98912.31
2023-02-02T11:34:28.085Z,98925.41
2023-02-02T11:37:20.202Z,98921.09
2023-02-02T11:40:24.506Z,98924.66
2023-02-02T11:43:21.010Z,98943.31
2023-02-02T11:46:14.773Z,98942.50
2023-02-02T11:49:09.941Z,98948.06
2023-02-02T11:52:05.152Z,98943.31
2023-02-02T11:54:52.954Z,98948.88
2023-02-02T11:57:38.461Z,98945.66
2023-02-02T12:00:27.269Z,98947.22
2023-02-02T12:03:33.253Z,98949.66
2023-02-02T12:06:21.982Z,98945.66
2023-02-02T12:09:28.354Z,98951.19
2023-02-02T12:12:49.923Z,98938.53
2023-02-02T12:15:44.290Z,98940.09
2023-02-02T12:18:49.201Z,98948.00
2023-02-02T12:21:49.503Z,98940.09
2023-02-02T12:24:38.053Z,98941.31
2023-02-02T12:27:43.530Z,98946.41
2023-02-02T12:30:38.036Z,98940.88
2023-02-02T12:33:50.482Z,98940.09
2023-02-02T12:36:41.650Z,98950.78
2023-02-02T12:39:47.775Z,98959.13
2023-02-02T12:42:51.900Z,98960.66
2023-02-02T12:49:00.215Z,98955.56
2023-02-02T12:52:03.193Z,98968.22
2023-02-02T12:55:04.946Z,98961.13
2023-02-02T12:58:01.498Z,98971.00
2023-02-02T13:01:15.252Z,98964.25
2023-02-02T13:04:28.889Z,98961.47
2023-02-02T13:07:34.072Z,98966.22
2023-02-02T13:10:22.511Z,98965.44
2023-02-02T13:13:14.850Z,98975.78
2023-02-02T13:16:07.881Z,98984.88
2023-02-02T13:19:02.085Z,98980.56
2023-02-02T13:21:48.503Z,98986.13
2023-02-02T13:24:38.913Z,98991.66
2023-02-02T13:27:27.616Z,99003.13
2023-02-02T13:30:18.993Z,98999.13
2023-02-02T13:33:20.234Z,99007.81
2023-02-02T13:36:25.925Z,99010.59
2023-02-02T13:39:26.548Z,99020.13
2023-02-02T13:42:38.626Z,99030.84
2023-02-02T13:45:41.483Z,99043.94
2023-02-02T13:48:36.414Z,99035.59
2023-02-02T13:51:34.834Z,99045.50
2023-02-02T13:54:57.527Z,99043.94
2023-02-02T14:01:09.026Z,99053.06
2023-02-02T14:03:57.451Z,99057.84
2023-02-02T14:06:59.350Z,99066.16
2023-02-02T14:09:48.868Z,99075.28
2023-02-02T14:12:36.198Z,99082.84
2023-02-02T14:15:43.647Z,99081.25
2023-02-02T14:18:59.818Z,99084.84
2023-02-02T14:21:48.603Z,99081.63
2023-02-02T14:24:41.024Z,99084.75
2023-02-02T14:27:29.672Z,99077.13
2023-02-02T14:30:22.808Z,99088.19
2023-02-02T14:33:20.478Z,99091.22
2023-02-02T14:36:12.585Z,99087.97
2023-02-02T14:39:17.648Z,99098.63
2023-02-02T14:42:43.522Z,99097.31
2023-02-02T14:45:42.632Z,99104.38
2023-02-02T14:48:27.991Z,99104.72
2023-02-02T14:51:21.361Z,99111.50
2023-02-02T14:54:08.617Z,99118.47
2023-02-02T14:56:58.931Z,99123.88
2023-02-02T14:59:46.807Z,99129.28
2023-02-02T15:02:37.603Z,99137.16
2023-02-02T15:05:29.325Z,99132.28
2023-02-02T15:08:26.563Z,99144.91
2023-02-02T15:11:29.973Z,99149.25
2023-02-02T15:14:18.006Z,99150.81
2023-02-02T15:17:05.854Z,99156.72
2023-02-02T15:20:01.637Z,99157.53
2023-02-02T15:23:02.277Z,99155.16
2023-02-02T15:25:57.840Z,99161.16
2023-02-02T15:28:52.133Z,99164.72
2023-02-02T15:31:52.170Z,99165.06
2023-02-02T15:34:42.569Z,99181.31
2023-02-02T15:37:40.251Z,99191.69
2023-02-02T15:40:28.073Z,99192.44
2023-02-02T15:43:14.717Z,99205.94
2023-02-02T15:46:09.642Z,99206.66
2023-02-02T15:49:36.144Z,99227.16
2023-02-02T15:52:27.635Z,99228.66
2023-02-02T15:55:19.925Z,99239.09
2023-02-02T15:58:24.856Z,99250.66
2023-02-02T16:01:20.747Z,99252.66
2023-02-02T16:04:31.785Z,99248.38
2023-02-02T16:07:26.381Z,99258.38
2023-02-02T16:10:20.424Z,99269.50
2023-02-02T16:13:05.935Z,99279.56
2023-02-02T16:16:00.593Z,99279.91
2023-02-02T16:18:45.895Z,99294.25
2023-02-02T16:21:33.519Z,99302.16
2023-02-02T16:24:26.632Z,99307.38
2023-02-02T16:27:14.817Z,99310.94
2023-02-02T16:30:06.907Z,99311.28
2023-02-02T16:32:52.265Z,99318.84
2023-02-02T16:35:40.810Z,99322.47
2023-02-02T16:38:37.373Z,99318.91
2023-02-02T16:41:26.545Z,99328.84
2023-02-02T16:44:42.954Z,99325.25
2023-02-02T16:47:29.523Z,99328.41
2023-02-02T16:50:29.661Z,99333.97
2023-02-02T16:53:24.712Z,99326.84
2023-02-02T16:56:26.559Z,99337.97
2023-02-02T16:59:24.727Z,99342.66
2023-02-02T17:02:21.179Z,99360.94
2023-02-02T17:05:20.918Z,99352.97
2023-02-02T17:08:07.971Z,99363.22
2023-02-02T17:11:32.465Z,99362.44
2023-02-02T17:14:20.199Z,99382.69
2023-02-02T17:17:06.645Z,99391.47
2023-02-02T17:19:52.566Z,99394.25
2023-02-02T17:22:41.794Z,99399.03
2023-02-02T17:25:30.061Z,99406.59
2023-02-02T17:28:19.580Z,99411.38
2023-02-02T17:31:11.157Z,99414.16
2023-02-02T17:33:56.590Z,99416.59
2023-02-02T17:36:42.950Z,99430.41
2023-02-02T17:39:28.789Z,99435.56
2023-02-02T17:42:25.531Z,99443.53
2023-02-02T17:45:21.332Z,99445.47
2023-02-02T17:48:06.845Z,99455.41
2023-02-02T17:50:52.315Z,99447.41
2023-02-02T17:53:37.847Z,99453.75
2023-02-02T17:56:24.517Z,99460.97
2023-02-02T17:59:12.357Z,99464.16
2023-02-02T18:01:58.914Z,99479.31
2023-02-02T18:04:45.700Z,99483.28
2023-02-02T18:07:31.960Z,99471.72
2023-02-02T18:10:19.315Z,99470.50
2023-02-02T18:13:05.193Z,99467.72
2023-02-02T18:15:53.077Z,99472.09
2023-02-02T18:18:39.819Z,99469.69
2023-02-02T18:21:28.295Z,99480.81
2023-02-02T18:24:23.062Z,99478.44
2023-02-02T18:27:09.540Z,99498.34
2023-02-02T18:29:56.206Z,99485.66
2023-02-02T18:32:42.297Z,99504.75
2023-02-02T18:35:28.351Z,99506.44
2023-02-02T18:38:14.916Z,99510.91
2023-02-02T18:41:03.614Z,99516.13
2023-02-02T18:43:49.776Z,99514.53
2023-02-02T18:46:35.396Z,99531.72
2023-02-02T18:49:21.639Z,99530.13
2023-02-02T18:52:07.301Z,99525.81
2023-02-02T18:54:52.916Z,99522.75
2023-02-02T18:57:38.114Z,99523.22
2023-02-02T19:00:23.611Z,99520.09
2023-02-02T19:03:09.302Z,99523.75
2023-02-02T19:06:13.476Z,99531.34
2023-02-02T19:08:59.131Z,99531.75
2023-02-02T19:11:47.686Z,99537.38
2023-02-02T19:14:37.941Z,99538.94
2023-02-02T19:17:28.062Z,99536.56
2023-02-02T19:20:28.949Z,99535.00
2023-02-02T19:23:15.947Z,99537.78
2023-02-02T19:26:01.341Z,99529.44
2023-02-02T19:28:47.009Z,99530.63
2023-02-02T19:31:32.477Z,99530.25
2023-02-02T19:34:20.461Z,99531.84
2023-02-02T19:37:24.697Z,99529.47
2023-02-02T19:40:10.022Z,99534.22
2023-02-02T19:43:03.885Z,99532.31
2023-02-02T19:45:49.296Z,99532.72
2023-02-02T19:48:35.492Z,99533.50
2023-02-02T19:51:33.773Z,99537.13
2023-02-02T19:54:25.304Z,99538.31
2023-02-02T19:57:14.044Z,99534.75
2023-02-02T20:00:11.452Z,99533.19
2023-02-02T20:03:11.157Z,99538.38
2023-02-02T20:05:57.909Z,99537.94
2023-02-02T20:08:43.744Z,99539.16
2023-02-02T20:11:35.443Z,99543.16
2023-02-02T20:14:30.684Z,99549.47
2023-02-02T20:17:35.805Z,99546.34
2023-02-02T20:20:29.037Z,99548.31
2023-02-02T20:23:17.429Z,99542.78
2023-02-02T20:26:11.293Z,99542.78
2023-02-02T20:28:57.728Z,99543.97
2023-02-02T20:31:43.307Z,99550.31
2023-02-02T20:34:35.413Z,99559.06
2023-02-02T20:37:24.074Z,99544.38
2023-02-02T20:40:25.189Z,99560.25
2023-02-02T20:43:11.119Z,99553.91
2023-02-02T20:45:56.461Z,99549.13
2023-02-02T20:48:41.947Z,99562.25
2023-02-02T20:51:28.403Z,99551.91
2023-02-02T20:54:13.919Z,99551.91
2023-02-02T20:56:59.694Z,99557.47
2023-02-02T20:59:45.310Z,99555.13
2023-02-02T21:02:30.720Z,99556.69
2023-02-02T21:05:16.061Z,99551.50
2023-02-02T21:08:01.284Z,99555.47
2023-02-02T21:10:46.605Z,99553.50
2023-02-02T21:13:31.705Z,99551.91
2023-02-02T21:16:17.230Z,99542.41
2023-02-02T21:19:02.918Z,99542.03
2023-02-02T21:21:48.170Z,99541.66
2023-02-02T21:24:33.565Z,99553.94
2023-02-02T21:27:19.028Z,99546.47
2023-02-02T21:30:05.096Z,99545.69
2023-02-02T21:32:50.780Z,99545.72
2023-02-02T21:35:36.146Z,99543.38
2023-02-02T21:38:21.689Z,99548.13
2023-02-02T21:41:13.831Z,99537.84
2023-02-02T21:43:59.644Z,99540.63
2023-02-02T21:46:47.373Z,99535.84
2023-02-02T21:49:38.093Z,99532.28
2023-02-02T21:52:25.864Z,99533.84
2023-02-02T21:55:36.648Z,99529.09
2023-02-02T21:58:32.316Z,99540.94
2023-02-02T22:01:28.772Z,99535.03
2023-02-02T22:04:28.590Z,99540.59
2023-02-02T22:07:17.018Z,99546.56
2023-02-02T22:10:21.230Z,99539.00
2023-02-02T22:13:26.599Z,99550.50
2023-02-02T22:16:18.943Z,99544.97
2023-02-02T22:19:23.959Z,99546.19
2023-02-02T22:22:09.167Z,99547.34
2023-02-02T22:25:06.786Z,99547.34
2023-02-02T22:27:58.404Z,99537.00
2023-02-02T22:30:44.275Z,99531.44
2023-02-02T22:33:29.914Z,99536.59
2023-02-02T22:36:15.718Z,99545.72
2023-02-02T22:39:01.044Z,99538.16
2023-02-02T22:41:46.310Z,99530.63
2023-02-02T22:44:31.562Z,99540.13
2023-02-02T22:47:17.016Z,99538.53
2023-02-02T22:50:02.714Z,99533.78
2023-02-02T22:52:48.137Z,99530.56
2023-02-02T22:55:33.925Z,99513.13
2023-02-02T22:58:19.175Z,99519.91
2023-02-02T23:01:04.959Z,99517.13
2023-02-02T23:03:50.351Z,99505.19
2023-02-02T23:06:35.518Z,99508.41
2023-02-02T23:09:20.806Z,99498.09
2023-02-02T23:12:06.309Z,99514.00
2023-02-02T23:14:51.674Z,99498.09
2023-02-02T23:17:37.228Z,99494.56
2023-02-02T23:20:22.410Z,99494.91
2023-02-02T23:23:07.714Z,99496.91
2023-02-02T23:25:52.921Z,99500.88
2023-02-02T23:28:38.164Z,99494.56
2023-02-02T23:31:23.524Z,99508.03
2023-02-02T23:34:09.277Z,99511.22
2023-02-02T23:36:54.633Z,99514.78
2023-02-02T23:39:39.918Z,99501.31
2023-02-02T23:42:25.851Z,99502.09
2023-02-02T23:45:11.267Z,99499.31
2023-02-02T23:47:56.541Z,99497.72
2023-02-02T23:50:41.993Z,99484.66
2023-02-02T23:53:27.529Z,99485.44
2023-02-02T23:56:13.264Z,99488.22
2023-02-02T23:58:58.596Z,99485.44
